sensor_id;sensor_type;location;lat;lon;timestamp;temperature;humidity
20070;DHT22;10195;50.868;4.382;2023-02-01T00:02:17;8.20;99.90
20070;DHT22;10195;50.868;4.382;2023-02-01T00:04:43;8.20;99.90
20070;DHT22;10195;50.868;4.382;2023-02-01T00:07:08;8.20;99.90
20070;DHT22;10195;50.868;4.382;2023-02-01T00:09:34;8.20;99.90
20070;DHT22;10195;50.868;4.382;2023-02-01T00:12:00;8.20;99.90
20070;DHT22;10195;50.868;4.382;2023-02-01T00:14:27;8.30;99.90
20070;DHT22;10195;50.868;4.382;2023-02-01T00:16:53;8.30;99.90
20070;DHT22;10195;50.868;4.382;2023-02-01T00:19:19;8.20;99.90
20070;DHT22;10195;50.868;4.382;2023-02-01T00:21:45;8.20;99.90
20070;DHT22;10195;50.868;4.382;2023-02-01T00:24:11;8.30;99.90
20070;DHT22;10195;50.868;4.382;2023-02-01T00:26:42;8.30;99.90
20070;DHT22;10195;50.868;4.382;2023-02-01T00:29:17;8.30;99.90
20070;DHT22;10195;50.868;4.382;2023-02-01T00:31:43;8.20;99.90
20070;DHT22;10195;50.868;4.382;2023-02-01T00:34:12;8.20;99.90
20070;DHT22;10195;50.868;4.382;2023-02-01T00:36:38;8.20;99.90
20070;DHT22;10195;50.868;4.382;2023-02-01T00:39:04;8.20;99.90
20070;DHT22;10195;50.868;4.382;2023-02-01T00:41:30;8.20;99.90
20070;DHT22;10195;50.868;4.382;2023-02-01T00:43:55;8.30;99.90
20070;DHT22;10195;50.868;4.382;2023-02-01T00:46:24;8.20;99.90
20070;DHT22;10195;50.868;4.382;2023-02-01T00:48:50;8.20;99.90
20070;DHT22;10195;50.868;4.382;2023-02-01T00:51:18;8.20;99.90
20070;DHT22;10195;50.868;4.382;2023-02-01T00:53:44;8.20;99.90
20070;DHT22;10195;50.868;4.382;2023-02-01T00:56:11;8.20;99.90
20070;DHT22;10195;50.868;4.382;2023-02-01T00:58:36;8.10;99.90
20070;DHT22;10195;50.868;4.382;2023-02-01T01:01:04;8.20;99.90
20070;DHT22;10195;50.868;4.382;2023-02-01T01:03:31;8.20;99.90
20070;DHT22;10195;50.868;4.382;2023-02-01T01:06:00;8.20;99.90
20070;DHT22;10195;50.868;4.382;2023-02-01T01:08:27;8.20;99.90
20070;DHT22;10195;50.868;4.382;2023-02-01T01:10:52;8.20;99.90
20070;DHT22;10195;50.868;4.382;2023-02-01T01:13:18;8.20;99.90
20070;DHT22;10195;50.868;4.382;2023-02-01T01:15:44;8.20;99.90
20070;DHT22;10195;50.868;4.382;2023-02-01T01:18:09;8.20;99.90
20070;DHT22;10195;50.868;4.382;2023-02-01T01:20:37;8.20;99.90
20070;DHT22;10195;50.868;4.382;2023-02-01T01:23:04;8.20;99.90
20070;DHT22;10195;50.868;4.382;2023-02-01T01:25:30;8.10;99.90
20070;DHT22;10195;50.868;4.382;2023-02-01T01:27:56;8.00;99.90
20070;DHT22;10195;50.868;4.382;2023-02-01T01:30:22;8.00;99.90
20070;DHT22;10195;50.868;4.382;2023-02-01T01:32:47;8.10;99.90
20070;DHT22;10195;50.868;4.382;2023-02-01T01:35:13;8.20;99.90
20070;DHT22;10195;50.868;4.382;2023-02-01T01:37:39;8.10;99.90
20070;DHT22;10195;50.868;4.382;2023-02-01T01:40:06;8.00;99.90
20070;DHT22;10195;50.868;4.382;2023-02-01T01:42:50;8.00;99.90
20070;DHT22;10195;50.868;4.382;2023-02-01T01:45:26;8.00;99.90
20070;DHT22;10195;50.868;4.382;2023-02-01T01:48:01;8.00;99.90
20070;DHT22;10195;50.868;4.382;2023-02-01T01:50:40;7.90;99.90
20070;DHT22;10195;50.868;4.382;2023-02-01T01:53:09;8.00;99.90
20070;DHT22;10195;50.868;4.382;2023-02-01T01:55:40;8.00;99.90
20070;DHT22;10195;50.868;4.382;2023-02-01T01:58:14;8.00;99.90
20070;DHT22;10195;50.868;4.382;2023-02-01T02:00:41;8.00;99.90
20070;DHT22;10195;50.868;4.382;2023-02-01T02:03:14;7.90;99.90
20070;DHT22;10195;50.868;4.382;2023-02-01T02:05:41;7.90;99.90
20070;DHT22;10195;50.868;4.382;2023-02-01T02:08:07;7.90;99.90
20070;DHT22;10195;50.868;4.382;2023-02-01T02:10:32;7.80;99.90
20070;DHT22;10195;50.868;4.382;2023-02-01T02:13:17;7.80;99.90
20070;DHT22;10195;50.868;4.382;2023-02-01T02:16:29;7.80;99.90
20070;DHT22;10195;50.868;4.382;2023-02-01T02:18:49;7.70;99.90
20070;DHT22;10195;50.868;4.382;2023-02-01T02:27:27;7.60;99.90
20070;DHT22;10195;50.868;4.382;2023-02-01T02:32:47;7.50;99.90
20070;DHT22;10195;50.868;4.382;2023-02-01T02:43:34;7.70;99.90
20070;DHT22;10195;50.868;4.382;2023-02-01T02:46:25;7.70;99.90
20070;DHT22;10195;50.868;4.382;2023-02-01T02:49:23;7.70;99.90
20070;DHT22;10195;50.868;4.382;2023-02-01T02:51:56;7.70;99.90
20070;DHT22;10195;50.868;4.382;2023-02-01T02:54:46;7.70;99.90
20070;DHT22;10195;50.868;4.382;2023-02-01T03:00:05;7.60;99.90
20070;DHT22;10195;50.868;4.382;2023-02-01T03:02:50;7.60;99.90
20070;DHT22;10195;50.868;4.382;2023-02-01T03:05:37;7.60;99.90
20070;DHT22;10195;50.868;4.382;2023-02-01T03:08:22;7.60;99.90
20070;DHT22;10195;50.868;4.382;2023-02-01T03:10:54;7.50;99.90
20070;DHT22;10195;50.868;4.382;2023-02-01T03:13:41;7.50;99.90
20070;DHT22;10195;50.868;4.382;2023-02-01T03:16:25;7.40;99.90
20070;DHT22;10195;50.868;4.382;2023-02-01T03:21:50;7.40;99.90
20070;DHT22;10195;50.868;4.382;2023-02-01T03:24:33;7.40;99.90
20070;DHT22;10195;50.868;4.382;2023-02-01T03:28:04;7.40;99.90
20070;DHT22;10195;50.868;4.382;2023-02-01T03:30:10;7.30;99.90
20070;DHT22;10195;50.868;4.382;2023-02-01T03:32:38;7.20;99.90
20070;DHT22;10195;50.868;4.382;2023-02-01T03:43:49;7.20;99.90
20070;DHT22;10195;50.868;4.382;2023-02-01T03:46:21;7.20;99.90
20070;DHT22;10195;50.868;4.382;2023-02-01T03:48:49;7.20;99.90
20070;DHT22;10195;50.868;4.382;2023-02-01T03:51:18;7.20;99.90
20070;DHT22;10195;50.868;4.382;2023-02-01T03:53:45;7.20;99.90
20070;DHT22;10195;50.868;4.382;2023-02-01T03:56:15;7.20;99.90
20070;DHT22;10195;50.868;4.382;2023-02-01T03:58:41;7.20;99.90
20070;DHT22;10195;50.868;4.382;2023-02-01T04:01:06;7.20;99.90
20070;DHT22;10195;50.868;4.382;2023-02-01T04:03:32;7.20;99.90
20070;DHT22;10195;50.868;4.382;2023-02-01T04:05:58;7.20;99.90
20070;DHT22;10195;50.868;4.382;2023-02-01T04:08:23;7.20;99.90
20070;DHT22;10195;50.868;4.382;2023-02-01T04:10:49;7.20;99.90
20070;DHT22;10195;50.868;4.382;2023-02-01T04:13:15;7.10;99.90
20070;DHT22;10195;50.868;4.382;2023-02-01T04:15:40;7.00;99.90
20070;DHT22;10195;50.868;4.382;2023-02-01T04:18:06;7.00;99.90
20070;DHT22;10195;50.868;4.382;2023-02-01T04:20:32;6.90;99.90
20070;DHT22;10195;50.868;4.382;2023-02-01T04:22:57;6.90;99.90
20070;DHT22;10195;50.868;4.382;2023-02-01T04:25:23;6.90;99.90
20070;DHT22;10195;50.868;4.382;2023-02-01T04:27:49;6.90;99.90
20070;DHT22;10195;50.868;4.382;2023-02-01T04:30:15;6.90;99.90
20070;DHT22;10195;50.868;4.382;2023-02-01T04:32:41;6.90;99.90
20070;DHT22;10195;50.868;4.382;2023-02-01T04:35:07;6.90;99.90
20070;DHT22;10195;50.868;4.382;2023-02-01T04:37:33;6.80;99.90
20070;DHT22;10195;50.868;4.382;2023-02-01T04:39:59;6.80;99.90
20070;DHT22;10195;50.868;4.382;2023-02-01T04:42:25;6.80;99.90
20070;DHT22;10195;50.868;4.382;2023-02-01T04:44:50;6.70;99.90
20070;DHT22;10195;50.868;4.382;2023-02-01T04:47:16;6.80;99.90
20070;DHT22;10195;50.868;4.382;2023-02-01T04:49:42;6.70;99.90
20070;DHT22;10195;50.868;4.382;2023-02-01T04:52:08;6.70;99.90
20070;DHT22;10195;50.868;4.382;2023-02-01T04:54:33;6.70;99.90
20070;DHT22;10195;50.868;4.382;2023-02-01T04:56:59;6.70;99.90
20070;DHT22;10195;50.868;4.382;2023-02-01T04:59:25;6.70;99.90
20070;DHT22;10195;50.868;4.382;2023-02-01T05:01:51;6.50;99.90
20070;DHT22;10195;50.868;4.382;2023-02-01T05:04:16;6.50;99.90
20070;DHT22;10195;50.868;4.382;2023-02-01T05:06:44;6.50;99.90
20070;DHT22;10195;50.868;4.382;2023-02-01T05:09:10;6.50;99.90
20070;DHT22;10195;50.868;4.382;2023-02-01T05:11:36;6.50;99.90
20070;DHT22;10195;50.868;4.382;2023-02-01T05:14:20;6.50;99.90
20070;DHT22;10195;50.868;4.382;2023-02-01T05:16:46;6.50;99.90
20070;DHT22;10195;50.868;4.382;2023-02-01T05:19:11;6.40;99.90
20070;DHT22;10195;50.868;4.382;2023-02-01T05:21:37;6.50;99.90
20070;DHT22;10195;50.868;4.382;2023-02-01T05:24:04;6.40;99.90
20070;DHT22;10195;50.868;4.382;2023-02-01T05:26:39;6.40;99.90
20070;DHT22;10195;50.868;4.382;2023-02-01T05:29:06;6.40;99.90
20070;DHT22;10195;50.868;4.382;2023-02-01T05:31:32;6.40;99.90
20070;DHT22;10195;50.868;4.382;2023-02-01T05:33:58;6.40;99.90
20070;DHT22;10195;50.868;4.382;2023-02-01T05:36:24;6.30;99.90
20070;DHT22;10195;50.868;4.382;2023-02-01T05:38:50;6.30;99.90
20070;DHT22;10195;50.868;4.382;2023-02-01T05:41:15;6.20;99.90
20070;DHT22;10195;50.868;4.382;2023-02-01T05:43:41;6.10;99.90
20070;DHT22;10195;50.868;4.382;2023-02-01T05:46:06;6.10;99.90
20070;DHT22;10195;50.868;4.382;2023-02-01T05:48:32;6.10;99.90
20070;DHT22;10195;50.868;4.382;2023-02-01T05:50:58;6.10;99.90
20070;DHT22;10195;50.868;4.382;2023-02-01T05:53:23;6.00;99.90
20070;DHT22;10195;50.868;4.382;2023-02-01T05:55:49;6.00;99.90
20070;DHT22;10195;50.868;4.382;2023-02-01T05:58:15;6.00;99.90
20070;DHT22;10195;50.868;4.382;2023-02-01T06:00:40;5.90;99.90
20070;DHT22;10195;50.868;4.382;2023-02-01T06:03:06;5.80;99.90
20070;DHT22;10195;50.868;4.382;2023-02-01T06:05:32;5.70;99.90
20070;DHT22;10195;50.868;4.382;2023-02-01T06:07:57;5.70;99.90
20070;DHT22;10195;50.868;4.382;2023-02-01T06:10:23;5.70;99.90
20070;DHT22;10195;50.868;4.382;2023-02-01T06:12:49;5.80;99.90
20070;DHT22;10195;50.868;4.382;2023-02-01T06:15:15;5.70;99.90
20070;DHT22;10195;50.868;4.382;2023-02-01T06:17:44;5.80;99.90
20070;DHT22;10195;50.868;4.382;2023-02-01T06:20:12;5.80;99.90
20070;DHT22;10195;50.868;4.382;2023-02-01T06:22:38;5.80;99.90
20070;DHT22;10195;50.868;4.382;2023-02-01T06:25:05;5.70;99.90
20070;DHT22;10195;50.868;4.382;2023-02-01T06:27:31;5.70;99.90
20070;DHT22;10195;50.868;4.382;2023-02-01T06:29:57;5.70;99.90
20070;DHT22;10195;50.868;4.382;2023-02-01T06:32:23;5.80;99.90
20070;DHT22;10195;50.868;4.382;2023-02-01T06:34:49;5.70;99.90
20070;DHT22;10195;50.868;4.382;2023-02-01T06:37:15;5.80;99.90
20070;DHT22;10195;50.868;4.382;2023-02-01T06:39:40;5.80;99.90
20070;DHT22;10195;50.868;4.382;2023-02-01T06:42:06;5.80;99.90
20070;DHT22;10195;50.868;4.382;2023-02-01T06:44:32;5.80;99.90
20070;DHT22;10195;50.868;4.382;2023-02-01T06:46:57;5.80;99.90
20070;DHT22;10195;50.868;4.382;2023-02-01T06:49:23;5.80;99.90
20070;DHT22;10195;50.868;4.382;2023-02-01T06:51:48;5.80;99.90
20070;DHT22;10195;50.868;4.382;2023-02-01T06:54:14;5.80;99.90
20070;DHT22;10195;50.868;4.382;2023-02-01T06:56:40;5.80;99.90
20070;DHT22;10195;50.868;4.382;2023-02-01T06:59:06;5.80;99.90
20070;DHT22;10195;50.868;4.382;2023-02-01T07:01:32;5.80;99.90
20070;DHT22;10195;50.868;4.382;2023-02-01T07:03:58;5.90;99.90
20070;DHT22;10195;50.868;4.382;2023-02-01T07:06:24;5.90;99.90
20070;DHT22;10195;50.868;4.382;2023-02-01T07:08:50;5.80;99.90
20070;DHT22;10195;50.868;4.382;2023-02-01T07:11:17;5.90;99.90
20070;DHT22;10195;50.868;4.382;2023-02-01T07:13:43;5.90;99.90
20070;DHT22;10195;50.868;4.382;2023-02-01T07:16:13;5.90;99.90
20070;DHT22;10195;50.868;4.382;2023-02-01T07:18:39;5.90;99.90
20070;DHT22;10195;50.868;4.382;2023-02-01T07:21:05;5.80;99.90
20070;DHT22;10195;50.868;4.382;2023-02-01T07:23:31;5.90;99.90
20070;DHT22;10195;50.868;4.382;2023-02-01T07:26:00;5.90;99.90
20070;DHT22;10195;50.868;4.382;2023-02-01T07:28:29;5.80;99.90
20070;DHT22;10195;50.868;4.382;2023-02-01T07:30:55;5.80;99.90
20070;DHT22;10195;50.868;4.382;2023-02-01T07:33:22;5.80;99.90
20070;DHT22;10195;50.868;4.382;2023-02-01T07:35:49;5.90;99.90
20070;DHT22;10195;50.868;4.382;2023-02-01T07:38:15;5.90;99.90
20070;DHT22;10195;50.868;4.382;2023-02-01T07:40:41;5.90;99.90
20070;DHT22;10195;50.868;4.382;2023-02-01T07:43:07;5.90;99.90
20070;DHT22;10195;50.868;4.382;2023-02-01T07:45:34;6.00;99.90
20070;DHT22;10195;50.868;4.382;2023-02-01T07:48:00;6.00;99.90
20070;DHT22;10195;50.868;4.382;2023-02-01T07:50:26;6.00;99.90
20070;DHT22;10195;50.868;4.382;2023-02-01T07:52:53;6.10;99.90
20070;DHT22;10195;50.868;4.382;2023-02-01T07:55:19;6.10;99.90
20070;DHT22;10195;50.868;4.382;2023-02-01T07:57:45;6.20;99.90
20070;DHT22;10195;50.868;4.382;2023-02-01T08:00:12;6.20;99.90
20070;DHT22;10195;50.868;4.382;2023-02-01T08:03:00;6.20;99.90
20070;DHT22;10195;50.868;4.382;2023-02-01T08:05:26;6.30;99.90
20070;DHT22;10195;50.868;4.382;2023-02-01T08:07:51;6.40;99.90
20070;DHT22;10195;50.868;4.382;2023-02-01T08:10:18;6.40;99.90
20070;DHT22;10195;50.868;4.382;2023-02-01T08:12:44;6.40;99.90
20070;DHT22;10195;50.868;4.382;2023-02-01T08:15:17;6.30;99.90
20070;DHT22;10195;50.868;4.382;2023-02-01T08:17:47;6.40;99.90
20070;DHT22;10195;50.868;4.382;2023-02-01T08:20:13;6.50;99.90
20070;DHT22;10195;50.868;4.382;2023-02-01T08:22:39;6.50;99.90
20070;DHT22;10195;50.868;4.382;2023-02-01T08:25:05;6.50;99.90
20070;DHT22;10195;50.868;4.382;2023-02-01T08:27:33;6.50;99.90
20070;DHT22;10195;50.868;4.382;2023-02-01T08:29:59;6.50;99.90
20070;DHT22;10195;50.868;4.382;2023-02-01T08:32:26;6.50;99.90
20070;DHT22;10195;50.868;4.382;2023-02-01T08:34:51;6.50;99.90
20070;DHT22;10195;50.868;4.382;2023-02-01T08:37:17;6.60;99.90
20070;DHT22;10195;50.868;4.382;2023-02-01T08:39:42;6.70;99.90
20070;DHT22;10195;50.868;4.382;2023-02-01T08:42:12;6.80;99.90
20070;DHT22;10195;50.868;4.382;2023-02-01T08:44:57;6.80;99.90
20070;DHT22;10195;50.868;4.382;2023-02-01T08:47:23;6.80;99.90
20070;DHT22;10195;50.868;4.382;2023-02-01T08:49:48;6.90;99.90
20070;DHT22;10195;50.868;4.382;2023-02-01T08:52:14;6.90;99.90
20070;DHT22;10195;50.868;4.382;2023-02-01T08:54:39;7.10;99.90
20070;DHT22;10195;50.868;4.382;2023-02-01T08:57:07;7.30;99.90
20070;DHT22;10195;50.868;4.382;2023-02-01T08:59:32;7.30;99.90
20070;DHT22;10195;50.868;4.382;2023-02-01T09:01:58;7.40;99.90
20070;DHT22;10195;50.868;4.382;2023-02-01T09:04:24;7.30;99.90
20070;DHT22;10195;50.868;4.382;2023-02-01T09:06:50;7.40;99.90
20070;DHT22;10195;50.868;4.382;2023-02-01T09:09:15;7.40;99.90
20070;DHT22;10195;50.868;4.382;2023-02-01T09:11:41;7.50;99.90
20070;DHT22;10195;50.868;4.382;2023-02-01T09:14:06;7.70;99.90
20070;DHT22;10195;50.868;4.382;2023-02-01T09:16:32;7.90;99.90
20070;DHT22;10195;50.868;4.382;2023-02-01T09:18:58;8.20;99.90
20070;DHT22;10195;50.868;4.382;2023-02-01T09:21:23;8.30;99.90
20070;DHT22;10195;50.868;4.382;2023-02-01T09:23:51;8.40;99.90
20070;DHT22;10195;50.868;4.382;2023-02-01T09:26:17;8.60;99.90
20070;DHT22;10195;50.868;4.382;2023-02-01T09:28:43;9.30;99.90
20070;DHT22;10195;50.868;4.382;2023-02-01T09:31:08;9.70;99.90
20070;DHT22;10195;50.868;4.382;2023-02-01T09:33:35;10.00;99.90
20070;DHT22;10195;50.868;4.382;2023-02-01T09:36:03;10.30;99.90
20070;DHT22;10195;50.868;4.382;2023-02-01T09:38:30;10.40;99.90
20070;DHT22;10195;50.868;4.382;2023-02-01T09:40:56;10.90;99.90
20070;DHT22;10195;50.868;4.382;2023-02-01T09:46:23;12.30;99.90
20070;DHT22;10195;50.868;4.382;2023-02-01T09:48:54;12.20;99.90
20070;DHT22;10195;50.868;4.382;2023-02-01T09:51:24;12.30;99.90
20070;DHT22;10195;50.868;4.382;2023-02-01T09:57:19;12.40;99.90
20070;DHT22;10195;50.868;4.382;2023-02-01T09:59:51;12.50;99.90
20070;DHT22;10195;50.868;4.382;2023-02-01T10:02:24;12.50;99.90
20070;DHT22;10195;50.868;4.382;2023-02-01T10:04:55;12.30;99.90
20070;DHT22;10195;50.868;4.382;2023-02-01T10:15:43;12.00;99.90
20070;DHT22;10195;50.868;4.382;2023-02-01T10:18:22;12.20;99.90
20070;DHT22;10195;50.868;4.382;2023-02-01T10:26:30;10.40;99.90
20070;DHT22;10195;50.868;4.382;2023-02-01T10:29:03;10.30;99.90
20070;DHT22;10195;50.868;4.382;2023-02-01T10:31:33;10.30;99.90
20070;DHT22;10195;50.868;4.382;2023-02-01T10:34:07;10.40;99.90
20070;DHT22;10195;50.868;4.382;2023-02-01T10:36:48;10.30;99.90
20070;DHT22;10195;50.868;4.382;2023-02-01T10:39:15;10.40;99.90
20070;DHT22;10195;50.868;4.382;2023-02-01T10:41:41;10.40;99.90
20070;DHT22;10195;50.868;4.382;2023-02-01T10:44:14;10.40;99.90
20070;DHT22;10195;50.868;4.382;2023-02-01T10:46:40;10.60;99.90
20070;DHT22;10195;50.868;4.382;2023-02-01T10:49:47;10.60;99.90
20070;DHT22;10195;50.868;4.382;2023-02-01T10:52:17;10.40;99.90
20070;DHT22;10195;50.868;4.382;2023-02-01T10:54:44;10.70;99.90
20070;DHT22;10195;50.868;4.382;2023-02-01T10:57:21;11.00;99.90
20070;DHT22;10195;50.868;4.382;2023-02-01T10:59:49;11.30;99.90
20070;DHT22;10195;50.868;4.382;2023-02-01T11:02:35;10.90;99.90
20070;DHT22;10195;50.868;4.382;2023-02-01T11:05:09;10.80;99.90
20070;DHT22;10195;50.868;4.382;2023-02-01T11:07:38;10.60;99.90
20070;DHT22;10195;50.868;4.382;2023-02-01T11:10:05;10.20;99.90
20070;DHT22;10195;50.868;4.382;2023-02-01T11:12:36;10.00;99.90
20070;DHT22;10195;50.868;4.382;2023-02-01T11:15:18;10.10;99.90
20070;DHT22;10195;50.868;4.382;2023-02-01T11:17:46;10.30;99.90
20070;DHT22;10195;50.868;4.382;2023-02-01T11:20:18;10.20;99.90
20070;DHT22;10195;50.868;4.382;2023-02-01T11:22:53;10.10;99.90
20070;DHT22;10195;50.868;4.382;2023-02-01T11:25:20;10.00;99.90
20070;DHT22;10195;50.868;4.382;2023-02-01T11:27:48;10.20;99.90
20070;DHT22;10195;50.868;4.382;2023-02-01T11:30:31;10.30;99.90
20070;DHT22;10195;50.868;4.382;2023-02-01T11:32:57;10.30;99.90
20070;DHT22;10195;50.868;4.382;2023-02-01T11:35:24;10.20;99.90
20070;DHT22;10195;50.868;4.382;2023-02-01T11:38:00;10.10;99.90
20070;DHT22;10195;50.868;4.382;2023-02-01T11:40:35;9.90;99.90
20070;DHT22;10195;50.868;4.382;2023-02-01T11:45:39;9.60;99.90
20070;DHT22;10195;50.868;4.382;2023-02-01T11:48:10;9.50;99.90
20070;DHT22;10195;50.868;4.382;2023-02-01T11:56:15;9.60;99.90
20070;DHT22;10195;50.868;4.382;2023-02-01T11:59:12;9.70;99.90
20070;DHT22;10195;50.868;4.382;2023-02-01T12:07:54;10.60;99.90
20070;DHT22;10195;50.868;4.382;2023-02-01T12:19:20;10.20;99.90
20070;DHT22;10195;50.868;4.382;2023-02-01T12:30:31;11.00;99.90
20070;DHT22;10195;50.868;4.382;2023-02-01T12:36:09;11.00;99.90
20070;DHT22;10195;50.868;4.382;2023-02-01T12:38:49;10.80;99.90
20070;DHT22;10195;50.868;4.382;2023-02-01T12:44:24;11.00;99.90
20070;DHT22;10195;50.868;4.382;2023-02-01T12:50:03;11.30;99.90
20070;DHT22;10195;50.868;4.382;2023-02-01T12:52:44;11.30;99.90
20070;DHT22;10195;50.868;4.382;2023-02-01T12:55:36;11.10;99.90
20070;DHT22;10195;50.868;4.382;2023-02-01T13:00:46;11.20;99.90
20070;DHT22;10195;50.868;4.382;2023-02-01T13:06:12;11.00;99.90
20070;DHT22;10195;50.868;4.382;2023-02-01T13:08:54;11.00;99.90
20070;DHT22;10195;50.868;4.382;2023-02-01T13:11:40;11.00;99.90
20070;DHT22;10195;50.868;4.382;2023-02-01T13:14:30;11.20;99.90
20070;DHT22;10195;50.868;4.382;2023-02-01T13:17:25;11.10;99.90
20070;DHT22;10195;50.868;4.382;2023-02-01T13:22:39;11.40;99.90
20070;DHT22;10195;50.868;4.382;2023-02-01T13:25:13;11.60;99.90
20070;DHT22;10195;50.868;4.382;2023-02-01T13:27:40;11.40;99.90
20070;DHT22;10195;50.868;4.382;2023-02-01T13:30:21;11.20;99.90
20070;DHT22;10195;50.868;4.382;2023-02-01T13:36:06;11.30;99.90
20070;DHT22;10195;50.868;4.382;2023-02-01T13:41:34;11.20;99.90
20070;DHT22;10195;50.868;4.382;2023-02-01T13:44:05;11.40;99.90
20070;DHT22;10195;50.868;4.382;2023-02-01T13:46:44;11.50;99.90
20070;DHT22;10195;50.868;4.382;2023-02-01T13:49:26;11.30;99.90
20070;DHT22;10195;50.868;4.382;2023-02-01T13:51:55;11.30;99.90
20070;DHT22;10195;50.868;4.382;2023-02-01T13:56:59;11.30;99.90
20070;DHT22;10195;50.868;4.382;2023-02-01T14:05:10;11.00;99.90
20070;DHT22;10195;50.868;4.382;2023-02-01T14:07:36;11.10;99.90
20070;DHT22;10195;50.868;4.382;2023-02-01T14:13:34;10.80;99.90
20070;DHT22;10195;50.868;4.382;2023-02-01T14:23:40;10.60;99.90
20070;DHT22;10195;50.868;4.382;2023-02-01T14:26:09;10.60;99.90
20070;DHT22;10195;50.868;4.382;2023-02-01T14:28:39;10.60;99.90
20070;DHT22;10195;50.868;4.382;2023-02-01T14:31:29;10.70;99.90
20070;DHT22;10195;50.868;4.382;2023-02-01T14:33:58;10.70;99.90
20070;DHT22;10195;50.868;4.382;2023-02-01T14:36:25;10.70;99.90
20070;DHT22;10195;50.868;4.382;2023-02-01T14:38:51;10.60;99.90
20070;DHT22;10195;50.868;4.382;2023-02-01T14:41:32;10.50;99.90
20070;DHT22;10195;50.868;4.382;2023-02-01T14:47:06;10.50;99.90
20070;DHT22;10195;50.868;4.382;2023-02-01T14:49:34;10.30;99.90
20070;DHT22;10195;50.868;4.382;2023-02-01T14:52:05;10.40;99.90
20070;DHT22;10195;50.868;4.382;2023-02-01T14:54:32;10.30;99.90
20070;DHT22;10195;50.868;4.382;2023-02-01T14:56:57;10.30;99.90
20070;DHT22;10195;50.868;4.382;2023-02-01T14:59:25;10.30;99.90
20070;DHT22;10195;50.868;4.382;2023-02-01T15:01:58;10.30;99.90
20070;DHT22;10195;50.868;4.382;2023-02-01T15:04:26;10.40;99.90
20070;DHT22;10195;50.868;4.382;2023-02-01T15:06:58;10.40;99.90
20070;DHT22;10195;50.868;4.382;2023-02-01T15:09:30;10.30;99.90
20070;DHT22;10195;50.868;4.382;2023-02-01T15:12:03;10.30;99.90
20070;DHT22;10195;50.868;4.382;2023-02-01T15:14:33;10.30;99.90
20070;DHT22;10195;50.868;4.382;2023-02-01T15:16:59;10.30;99.90
20070;DHT22;10195;50.868;4.382;2023-02-01T15:19:27;10.20;99.90
20070;DHT22;10195;50.868;4.382;2023-02-01T15:21:55;10.10;99.90
20070;DHT22;10195;50.868;4.382;2023-02-01T15:24:27;10.00;99.90
20070;DHT22;10195;50.868;4.382;2023-02-01T15:26:54;10.00;99.90
20070;DHT22;10195;50.868;4.382;2023-02-01T15:29:22;10.00;99.90
20070;DHT22;10195;50.868;4.382;2023-02-01T15:31:52;10.00;99.90
20070;DHT22;10195;50.868;4.382;2023-02-01T15:34:19;10.00;99.90
20070;DHT22;10195;50.868;4.382;2023-02-01T15:36:45;10.00;99.90
20070;DHT22;10195;50.868;4.382;2023-02-01T15:39:15;10.00;99.90
20070;DHT22;10195;50.868;4.382;2023-02-01T15:41:48;10.00;99.90
20070;DHT22;10195;50.868;4.382;2023-02-01T15:46:47;10.00;99.90
20070;DHT22;10195;50.868;4.382;2023-02-01T15:49:31;10.00;99.90
20070;DHT22;10195;50.868;4.382;2023-02-01T15:51:59;10.00;99.90
20070;DHT22;10195;50.868;4.382;2023-02-01T15:54:43;9.90;99.90
20070;DHT22;10195;50.868;4.382;2023-02-01T15:57:11;9.80;99.90
20070;DHT22;10195;50.868;4.382;2023-02-01T15:59:44;9.90;99.90
20070;DHT22;10195;50.868;4.382;2023-02-01T16:02:36;9.90;99.90
20070;DHT22;10195;50.868;4.382;2023-02-01T16:05:21;10.00;99.90
20070;DHT22;10195;50.868;4.382;2023-02-01T16:10:43;9.80;99.90
20070;DHT22;10195;50.868;4.382;2023-02-01T16:13:09;9.80;99.90
20070;DHT22;10195;50.868;4.382;2023-02-01T16:15:35;9.80;99.90
20070;DHT22;10195;50.868;4.382;2023-02-01T16:18:00;9.90;99.90
20070;DHT22;10195;50.868;4.382;2023-02-01T16:20:26;9.80;99.90
20070;DHT22;10195;50.868;4.382;2023-02-01T16:22:52;9.80;99.90
20070;DHT22;10195;50.868;4.382;2023-02-01T16:25:18;9.80;99.90
20070;DHT22;10195;50.868;4.382;2023-02-01T16:27:43;9.80;99.90
20070;DHT22;10195;50.868;4.382;2023-02-01T16:30:09;9.80;99.90
20070;DHT22;10195;50.868;4.382;2023-02-01T16:32:36;9.70;99.90
20070;DHT22;10195;50.868;4.382;2023-02-01T16:35:13;9.80;99.90
20070;DHT22;10195;50.868;4.382;2023-02-01T16:37:44;9.80;99.90
20070;DHT22;10195;50.868;4.382;2023-02-01T16:40:17;9.90;99.90
20070;DHT22;10195;50.868;4.382;2023-02-01T16:42:45;9.80;99.90
20070;DHT22;10195;50.868;4.382;2023-02-01T16:45:11;9.80;99.90
20070;DHT22;10195;50.868;4.382;2023-02-01T16:47:38;9.80;99.90
20070;DHT22;10195;50.868;4.382;2023-02-01T16:50:15;9.80;99.90
20070;DHT22;10195;50.868;4.382;2023-02-01T16:52:42;9.70;99.90
20070;DHT22;10195;50.868;4.382;2023-02-01T16:55:19;9.80;99.90
20070;DHT22;10195;50.868;4.382;2023-02-01T16:57:47;9.70;99.90
20070;DHT22;10195;50.868;4.382;2023-02-01T17:00:13;9.60;99.90
20070;DHT22;10195;50.868;4.382;2023-02-01T17:02:41;9.60;99.90
20070;DHT22;10195;50.868;4.382;2023-02-01T17:05:08;9.70;99.90
20070;DHT22;10195;50.868;4.382;2023-02-01T17:07:35;9.80;99.90
20070;DHT22;10195;50.868;4.382;2023-02-01T17:10:01;9.70;99.90
20070;DHT22;10195;50.868;4.382;2023-02-01T17:12:30;9.80;99.90
20070;DHT22;10195;50.868;4.382;2023-02-01T17:14:57;9.80;99.90
20070;DHT22;10195;50.868;4.382;2023-02-01T17:17:23;9.80;99.90
20070;DHT22;10195;50.868;4.382;2023-02-01T17:19:52;9.80;99.90
20070;DHT22;10195;50.868;4.382;2023-02-01T17:22:22;9.80;99.90
20070;DHT22;10195;50.868;4.382;2023-02-01T17:24:48;9.70;99.90
20070;DHT22;10195;50.868;4.382;2023-02-01T17:27:15;9.70;99.90
20070;DHT22;10195;50.868;4.382;2023-02-01T17:29:41;9.80;99.90
20070;DHT22;10195;50.868;4.382;2023-02-01T17:32:15;9.80;99.90
20070;DHT22;10195;50.868;4.382;2023-02-01T17:34:41;9.80;99.90
20070;DHT22;10195;50.868;4.382;2023-02-01T17:37:26;9.80;99.90
20070;DHT22;10195;50.868;4.382;2023-02-01T17:39:52;9.80;99.90
20070;DHT22;10195;50.868;4.382;2023-02-01T17:42:24;9.80;99.90
20070;DHT22;10195;50.868;4.382;2023-02-01T17:44:57;9.70;99.90
20070;DHT22;10195;50.868;4.382;2023-02-01T17:47:23;9.80;99.90
20070;DHT22;10195;50.868;4.382;2023-02-01T17:49:49;9.70;99.90
20070;DHT22;10195;50.868;4.382;2023-02-01T17:52:21;9.70;99.90
20070;DHT22;10195;50.868;4.382;2023-02-01T17:54:47;9.70;99.90
20070;DHT22;10195;50.868;4.382;2023-02-01T17:57:15;9.70;99.90
20070;DHT22;10195;50.868;4.382;2023-02-01T17:59:41;9.60;99.90
20070;DHT22;10195;50.868;4.382;2023-02-01T18:02:22;9.60;99.90
20070;DHT22;10195;50.868;4.382;2023-02-01T18:04:49;9.60;99.90
20070;DHT22;10195;50.868;4.382;2023-02-01T18:07:15;9.60;99.90
20070;DHT22;10195;50.868;4.382;2023-02-01T18:09:41;9.60;99.90
20070;DHT22;10195;50.868;4.382;2023-02-01T18:12:18;9.50;99.90
20070;DHT22;10195;50.868;4.382;2023-02-01T18:14:45;9.60;99.90